LDSPLDZA

Guest
Details From LDSP - SPLIT
To LDZA - Zagreb
Flight Number -
Tags generated
Created
Modified
Stats Distance 133 nm / 246 km
Max Altitude 16,600 ft / 5,060 m
Waypoints 3
Social Downloads 7
Likes 0
Share VATSIM

Download

Looking for another format? Having issues loading an existing format? Contact us
Advertisement - Login to hide

Notes

Basic altitude profile: - Ascent Rate: 2500ft/min - Ascent Speed: 250kts - Cruise Altitude: 35000ft - Cruise Speed: 420kts - Descent Rate: 1500ft/min - Descent Speed: 250kts Options: - Use NATs: yes - Use PACOTS: yes - Use low airways: yes - Use high airways: yes

Route

LDSP SONIK LDZA

ID Type Via Altitude Latitude Longitude Leg Dist Tot Dist Heading (true) Name
O LDSP APT - 0 ft / 0 m 43.53903˚ 16.29811˚ - 0 nm - SPLIT
SONIK FIX - 16,600 ft / 5,060 m 44.44833˚ 16.14333˚ 55 nm 55 nm 353° / 353° -
O LDZA APT - 0 ft / 0 m 45.74189˚ 16.06720˚ 77 nm 132 nm 358° / 358° Zagreb

Altitude Profile

Advertisement - Login to hide

LDSP

Details ICAO LDSP (SPU)
Name SPLIT
Region Croatia
Timezone Europe/Zagreb (UTC+2.0)
Stats Elevation 79 ft / 24 m (AMSL)
Location 43.539026° 16.298112°
Runways 1
Magnetic Variation 3.885° E

METAR

LDSP 260430Z 36003KT 300V040 CAVOK 22/14 Q1016 NOSIG

Decode

TAF

TAF LDSP 252325Z 2600/2700 35005KT CAVOK TX28/2613Z TN19/2603Z BECMG 2610/2611 23009KT PROB30 TEMPO 2611/2614 TS FEW050CB BECMG 2615/2617 VRB02KT

Decode

Departure Runways

ID Width Length Bearing (true) Bearing (mag) Surface Threshold Offset Overrun Length
05 148 ft / 45 m 8,357 ft / 2,547 m 52.48° 48.60° Asphalt 0 ft / 0 m 76 ft / 23 m
23 148 ft / 45 m 8,357 ft / 2,547 m 232.50° 228.62° Asphalt 525 ft / 160 m 820 ft / 250 m

LDZA

Details ICAO LDZA (ZAG)
Name Zagreb
Region Croatia
Timezone Europe/Zagreb (UTC+2.0)
Stats Elevation 353 ft / 108 m (AMSL)
Location 45.741890° 16.067200°
Runways 1
Magnetic Variation 4.009° E

METAR

LDZA 260430Z 23001KT 9999 FEW025 15/14 Q1021 NOSIG

Decode

TAF

TAF LDZA 252325Z 2600/2700 05004KT 9999 SCT025 TX26/2613Z TN14/2604Z PROB40 TEMPO 2600/2606 1000 BCFG PROB30 2603/2606 0300 FG VV001 PROB30 TEMPO 2614/2618 FEW050CB

Decode

Destination Runways

ID Width Length Bearing (true) Bearing (mag) Surface Threshold Offset Overrun Length
05 148 ft / 45 m 10,659 ft / 3,249 m 46.69° 42.68° Asphalt 0 ft / 0 m 195 ft / 59 m
23 148 ft / 45 m 10,659 ft / 3,249 m 226.71° 222.70° Asphalt 0 ft / 0 m 195 ft / 59 m

Approach Navaids

Runway Type Ident Frequency Range Bearing (true) Bearing (mag) Slope Elevation
05 Localiser IZA 109.50 MHz 25 nm / 46 km 46.79° 42.78° - 335 ft / 102 m (AMSL)
05 Glidescope IZA 109.50 MHz 25 nm / 46 km 46.79° 42.78° 3.00° 344 ft / 105 m (AMSL)
05 DME IZA 109.50 MHz 25 nm / 46 km - - - 372 ft / 113 m (AMSL)
23 Localiser IZG 109.10 MHz 25 nm / 46 km 226.81° 222.80° - 344 ft / 105 m (AMSL)
23 Glidescope IZG 109.10 MHz 25 nm / 46 km 226.81° 222.80° 3.00° 344 ft / 105 m (AMSL)

Popular Alternatives